Time;durP1;ratioP1;P1;durP2;ratioP2;P2;SDS_P1;SDS_P2;PMS_P1;PMS_P2;Temp;Humidity;BMP_temperature;BMP_pressure;BME280_temperature;BME280_humidity;BME280_pressure;Samples;Min_cycle;Max_cycle;Signal;HPM_P1;HPM_P2
2021/06/14 00:01:56;;;;;;;1.00;1.00;;;;;;;13.65;100.00;96679.78;5094151;28;20196;-82
2021/06/14 00:04:23;;;;;;;1.37;0.97;;;;;;;13.54;100.00;96694.97;5094256;28;20595;-82
2021/06/14 00:06:51;;;;;;;1.90;0.90;;;;;;;13.44;100.00;96690.81;5094578;28;20192;-82
2021/06/14 00:09:22;;;;;;;3.60;0.90;;;;;;;13.45;100.00;96695.97;5094050;28;20601;-82
2021/06/14 00:11:49;;;;;;;1.00;1.00;;;;;;;13.43;100.00;96702.38;5094281;28;20223;-82
2021/06/14 00:14:19;;;;;;;0.93;0.90;;;;;;;13.45;100.00;96703.06;5093725;28;20246;-83
2021/06/14 00:16:46;;;;;;;0.87;0.87;;;;;;;13.52;100.00;96702.22;5094390;28;20196;-82
2021/06/14 00:19:15;;;;;;;4.50;1.50;;;;;;;13.47;100.00;96703.69;5093690;28;20311;-82
2021/06/14 00:21:43;;;;;;;0.70;0.70;;;;;;;13.47;100.00;96717.75;5093873;28;20245;-82
2021/06/14 00:24:11;;;;;;;0.90;0.90;;;;;;;13.55;100.00;96723.03;5092802;28;20211;-83
2021/06/14 00:26:38;;;;;;;1.47;1.10;;;;;;;13.53;100.00;96730.28;5093992;28;20290;-82
2021/06/14 00:29:06;;;;;;;1.00;1.00;;;;;;;13.54;100.00;96742.50;5093624;28;20192;-82
2021/06/14 00:31:35;;;;;;;0.90;0.90;;;;;;;13.57;100.00;96744.78;5093644;28;20240;-82
2021/06/14 00:34:02;;;;;;;1.10;1.10;;;;;;;13.56;100.00;96760.81;5093838;28;20223;-82
2021/06/14 00:36:32;;;;;;;0.80;0.80;;;;;;;13.64;100.00;96766.09;5093758;28;20677;-82
2021/06/14 00:39:00;;;;;;;0.90;0.90;;;;;;;13.59;100.00;96776.34;5093139;28;20773;-82
2021/06/14 00:41:27;;;;;;;1.00;1.00;;;;;;;13.58;100.00;96779.97;5093655;28;20196;-82
2021/06/14 00:43:55;;;;;;;0.97;0.97;;;;;;;13.53;100.00;96798.94;5093389;28;20199;-82
2021/06/14 00:46:22;;;;;;;1.10;1.10;;;;;;;13.54;100.00;96811.16;5093504;28;20234;-82
2021/06/14 00:48:51;;;;;;;0.97;0.97;;;;;;;13.58;100.00;96806.38;5093330;28;20204;-82
2021/06/14 00:51:18;;;;;;;1.07;1.07;;;;;;;13.53;100.00;96812.13;5093265;28;20253;-82
2021/06/14 00:53:55;;;;;;;1.00;1.00;;;;;;;13.60;100.00;96819.41;5093223;28;20234;-82
2021/06/14 00:56:23;;;;;;;1.00;1.00;;;;;;;13.56;100.00;96819.75;5093350;28;20601;-83
2021/06/14 00:58:52;;;;;;;0.87;0.87;;;;;;;13.58;100.00;96822.22;5092840;28;20315;-83
2021/06/14 01:01:19;;;;;;;1.40;1.03;;;;;;;13.56;100.00;96827.66;5093226;28;20196;-83
2021/06/14 01:03:47;;;;;;;1.43;1.10;;;;;;;13.59;100.00;96829.16;5092991;28;20192;-83
2021/06/14 01:06:16;;;;;;;1.40;1.30;;;;;;;13.62;100.00;96831.47;5093051;28;20196;-82
2021/06/14 01:08:46;;;;;;;1.30;1.20;;;;;;;13.73;100.00;96835.59;5092912;28;20239;-83
2021/06/14 01:11:20;;;;;;;1.00;1.00;;;;;;;13.77;100.00;96843.03;5093191;28;20211;-83
2021/06/14 01:13:56;;;;;;;1.10;1.10;;;;;;;13.88;100.00;96836.59;5092875;28;20190;-83
2021/06/14 01:16:32;;;;;;;1.00;1.00;;;;;;;13.93;100.00;96842.22;5092917;28;20215;-83
2021/06/14 01:19:06;;;;;;;1.33;0.97;;;;;;;13.97;100.00;96842.72;5093124;28;20231;-83
2021/06/14 01:21:39;;;;;;;1.57;1.20;;;;;;;13.84;100.00;96852.94;5092860;28;20588;-82
2021/06/14 01:24:30;;;;;;;1.10;1.10;;;;;;;13.63;100.00;96851.59;5092809;28;20301;-83
2021/06/14 01:27:04;;;;;;;1.90;1.27;;;;;;;13.54;100.00;96858.72;5092495;28;20250;-83
2021/06/14 01:29:34;;;;;;;0.90;0.90;;;;;;;13.67;100.00;96850.28;5092523;28;20184;-82
2021/06/14 01:32:04;;;;;;;1.60;1.37;;;;;;;13.72;100.00;96840.06;5092749;28;20246;-82
2021/06/14 01:34:34;;;;;;;1.20;1.00;;;;;;;13.64;100.00;96834.75;5092326;28;20196;-82
2021/06/14 01:37:03;;;;;;;4.30;1.30;;;;;;;13.53;100.00;96824.53;5092385;28;20216;-82
2021/06/14 01:39:36;;;;;;;1.70;1.13;;;;;;;13.68;100.00;96806.19;5092213;28;20223;-82
2021/06/14 01:42:06;;;;;;;4.40;1.10;;;;;;;13.52;100.00;96805.22;5092579;28;20187;-83
2021/06/14 01:44:37;;;;;;;3.20;1.27;;;;;;;13.55;100.00;96794.31;5092326;28;20196;-82
2021/06/14 01:47:07;;;;;;;1.10;1.10;;;;;;;13.58;100.00;96785.25;5092291;28;20559;-83
2021/06/14 01:49:36;;;;;;;1.30;1.20;;;;;;;13.33;100.00;96771.19;5092184;28;20718;-82
2021/06/14 01:52:05;;;;;;;1.07;1.07;;;;;;;13.16;100.00;96769.47;5092347;28;20730;-83
2021/06/14 01:54:33;;;;;;;1.23;1.13;;;;;;;13.25;100.00;96768.53;5092102;28;20200;-83
2021/06/14 01:57:01;;;;;;;1.53;1.43;;;;;;;13.29;100.00;96764.59;5092473;28;20200;-82
2021/06/14 01:59:33;;;;;;;1.50;1.40;;;;;;;13.27;100.00;96764.75;5091879;28;20227;-82
2021/06/14 02:02:05;;;;;;;1.30;1.23;;;;;;;13.37;100.00;96761.13;5092195;28;20180;-82
2021/06/14 02:04:33;;;;;;;1.30;1.17;;;;;;;13.16;100.00;96748.38;5092412;28;20307;-83
2021/06/14 02:07:05;;;;;;;1.57;1.13;;;;;;;13.15;100.00;96746.72;5091878;28;20235;-83
2021/06/14 02:09:34;;;;;;;0.90;0.90;;;;;;;13.24;100.00;96724.66;5091787;28;20224;-83
2021/06/14 02:12:04;;;;;;;1.77;1.00;;;;;;;13.23;100.00;96709.78;5092036;28;20234;-83
2021/06/14 02:14:34;;;;;;;1.30;1.20;;;;;;;13.18;100.00;96704.19;5091956;28;20245;-83
2021/06/14 02:17:15;;;;;;;5.27;1.33;;;;;;;13.17;100.00;96697.25;5092410;28;20193;-83
2021/06/14 02:19:43;;;;;;;1.60;1.50;;;;;;;13.17;100.00;96692.78;5091860;28;20215;-82
2021/06/14 02:22:12;;;;;;;1.50;1.40;;;;;;;13.09;100.00;96679.56;5091892;28;20257;-82
2021/06/14 02:24:41;;;;;;;1.33;1.30;;;;;;;13.12;100.00;96687.16;5091906;28;20199;-82
2021/06/14 02:27:11;;;;;;;1.90;1.27;;;;;;;13.10;100.00;96683.88;5091871;28;20198;-82
2021/06/14 02:29:39;;;;;;;1.70;1.60;;;;;;;12.88;100.00;96685.31;5091801;28;20180;-82
2021/06/14 02:32:09;;;;;;;2.00;1.20;;;;;;;12.92;100.00;96670.84;5092222;28;20254;-83
2021/06/14 02:34:38;;;;;;;1.60;1.30;;;;;;;12.73;100.00;96668.50;5091638;28;20222;-82
2021/06/14 02:37:07;;;;;;;1.50;1.40;;;;;;;12.74;100.00;96662.22;5091712;28;20242;-83
2021/06/14 02:39:36;;;;;;;3.93;1.77;;;;;;;12.76;100.00;96662.91;5091843;28;20228;-83
2021/06/14 02:42:06;;;;;;;1.20;1.20;;;;;;;12.80;100.00;96648.41;5091816;28;20665;-83
2021/06/14 02:44:33;;;;;;;2.07;1.53;;;;;;;12.90;100.00;96637.69;5091357;28;20204;-82
2021/06/14 02:47:06;;;;;;;2.23;2.03;;;;;;;12.95;100.00;96645.94;5093038;28;20233;-83
2021/06/14 02:49:36;;;;;;;2.93;2.23;;;;;;;12.95;100.00;96636.19;5095618;28;20250;-83
2021/06/14 02:52:06;;;;;;;1.50;1.40;;;;;;;13.05;100.00;96636.84;5096265;28;20204;-82
2021/06/14 02:54:38;;;;;;;2.57;1.70;;;;;;;12.90;100.00;96635.88;5095369;28;20246;-82
2021/06/14 02:57:11;;;;;;;2.80;1.60;;;;;;;12.98;100.00;96630.59;5095598;28;20192;-82
2021/06/14 02:59:39;;;;;;;1.63;1.53;;;;;;;13.06;100.00;96630.63;5095399;28;20208;-82
2021/06/14 03:02:07;;;;;;;2.23;1.40;;;;;;;12.92;100.00;96620.72;5095251;28;20253;-82
2021/06/14 03:04:36;;;;;;;2.93;2.33;;;;;;;12.82;100.00;96620.06;5095595;28;20292;-83
2021/06/14 03:07:05;;;;;;;3.67;3.37;;;;;;;12.93;100.00;96611.81;5095471;28;20207;-83
2021/06/14 03:09:33;;;;;;;4.50;2.70;;;;;;;13.10;100.00;96607.34;5095063;28;20236;-83
2021/06/14 03:12:02;;;;;;;5.10;4.63;;;;;;;13.13;100.00;96600.91;5095184;28;20196;-83
2021/06/14 03:14:31;;;;;;;8.77;7.93;;;;;;;13.16;100.00;96605.84;5095159;28;20197;-83
2021/06/14 03:16:59;;;;;;;3.87;2.33;;;;;;;12.87;100.00;96609.81;5095509;28;20260;-83
2021/06/14 03:19:28;;;;;;;1.60;1.40;;;;;;;12.65;100.00;96613.13;5097220;28;20224;-84
2021/06/14 03:21:57;;;;;;;1.63;1.50;;;;;;;12.72;100.00;96614.09;5094619;28;20231;-84
2021/06/14 03:24:24;;;;;;;9.10;2.93;;;;;;;12.75;100.00;96613.78;5093729;28;20750;-83
2021/06/14 03:26:51;;;;;;;9.83;3.27;;;;;;;12.75;100.00;96611.16;5093601;28;20278;-84
2021/06/14 03:29:21;;;;;;;1.90;1.80;;;;;;;12.49;100.00;96604.16;5092918;28;20196;-83
2021/06/14 03:31:49;;;;;;;1.53;1.43;;;;;;;12.71;100.00;96589.56;5093042;28;20231;-83
2021/06/14 03:34:18;;;;;;;2.33;1.50;;;;;;;12.73;100.00;96590.19;5093687;28;20196;-83
2021/06/14 03:36:46;;;;;;;1.50;1.40;;;;;;;12.89;100.00;96593.84;5093468;28;20211;-83
2021/06/14 03:39:17;;;;;;;2.40;1.57;;;;;;;12.97;100.00;96597.28;5093576;28;20231;-84
2021/06/14 03:41:45;;;;;;;3.83;1.83;;;;;;;12.95;100.00;96598.44;5093496;28;20181;-83
2021/06/14 03:44:14;;;;;;;2.73;2.33;;;;;;;12.95;100.00;96604.53;5093817;28;20203;-83
2021/06/14 03:46:41;;;;;;;1.70;1.60;;;;;;;13.05;100.00;96594.63;5093705;28;20192;-84
2021/06/14 03:49:08;;;;;;;1.30;1.20;;;;;;;13.06;100.00;96593.66;5093497;28;20632;-83
2021/06/14 03:51:36;;;;;;;1.40;1.30;;;;;;;13.08;100.00;96590.84;5093180;28;20204;-83
2021/06/14 03:54:05;;;;;;;3.43;2.23;;;;;;;12.92;100.00;96602.25;5093334;28;20200;-83
2021/06/14 03:56:37;;;;;;;2.27;1.10;;;;;;;12.98;100.00;96609.50;5093502;28;20287;-83
2021/06/14 03:59:05;;;;;;;1.40;1.30;;;;;;;12.88;100.00;96605.38;5091996;28;20211;-84
2021/06/14 04:01:32;;;;;;;2.80;1.30;;;;;;;12.81;100.00;96602.56;5093416;28;20249;-84
2021/06/14 04:06:41;;;;;;;1.03;1.03;;;;;;;12.83;100.00;96608.50;5094260;28;20283;-83
2021/06/14 04:09:08;;;;;;;1.40;1.30;;;;;;;12.78;100.00;96613.44;5094017;28;20243;-83
2021/06/14 04:11:37;;;;;;;3.37;1.20;;;;;;;12.79;100.00;96615.91;5093935;28;20621;-84
2021/06/14 04:14:05;;;;;;;1.00;1.00;;;;;;;12.90;100.00;96611.31;5094048;28;20231;-83
2021/06/14 04:16:32;;;;;;;1.30;1.20;;;;;;;12.85;100.00;96617.09;5094185;28;20196;-84
2021/06/14 04:18:59;;;;;;;1.13;1.03;;;;;;;12.91;100.00;96605.84;5093836;28;20314;-83
2021/06/14 04:21:27;;;;;;;1.10;1.03;;;;;;;12.95;100.00;96620.38;5093691;28;20191;-83
2021/06/14 04:23:54;;;;;;;1.00;1.00;;;;;;;13.23;100.00;96605.03;5093877;28;20234;-83
2021/06/14 04:26:22;;;;;;;1.53;1.40;;;;;;;13.23;100.00;96602.41;5093970;28;20664;-83
2021/06/14 04:28:50;;;;;;;1.30;1.20;;;;;;;13.25;100.00;96605.72;5094159;28;20192;-83
2021/06/14 04:31:18;;;;;;;1.23;1.20;;;;;;;13.06;100.00;96617.41;5093658;28;20207;-83
2021/06/14 04:33:45;;;;;;;5.10;1.67;;;;;;;13.18;100.00;96607.34;5093742;28;20207;-83
2021/06/14 04:36:13;;;;;;;1.67;1.37;;;;;;;13.10;100.00;96607.34;5094058;28;20203;-84
2021/06/14 04:38:40;;;;;;;2.37;1.50;;;;;;;13.11;100.00;96602.91;5093857;28;20260;-83
2021/06/14 04:41:08;;;;;;;1.93;1.30;;;;;;;13.11;100.00;96603.72;5093666;28;20679;-83
2021/06/14 04:43:35;;;;;;;1.50;1.40;;;;;;;13.18;100.00;96601.25;5093352;28;20227;-83
2021/06/14 04:46:04;;;;;;;1.43;1.37;;;;;;;13.29;100.00;96606.19;5093582;28;20273;-83
2021/06/14 04:48:32;;;;;;;1.30;1.20;;;;;;;13.29;100.00;96607.03;5093466;28;20200;-83
2021/06/14 04:50:59;;;;;;;1.60;1.50;;;;;;;13.35;100.00;96604.72;5093741;28;20699;-83
2021/06/14 04:53:27;;;;;;;1.37;1.27;;;;;;;13.38;100.00;96602.56;5093376;28;20196;-83
2021/06/14 04:55:54;;;;;;;1.70;1.60;;;;;;;13.54;100.00;96615.75;5093387;28;20680;-83
2021/06/14 04:58:22;;;;;;;1.70;1.60;;;;;;;13.66;100.00;96613.56;5093230;28;20203;-83
2021/06/14 05:00:49;;;;;;;4.97;2.23;;;;;;;13.65;100.00;96616.38;5093432;28;20228;-83
2021/06/14 05:03:18;;;;;;;3.67;1.60;;;;;;;13.81;100.00;96624.25;5092880;28;20197;-83
2021/06/14 05:05:45;;;;;;;2.47;1.90;;;;;;;13.77;100.00;96630.88;5093450;28;20196;-83
2021/06/14 05:08:18;;;;;;;1.70;1.60;;;;;;;13.89;100.00;96632.16;5093109;28;20309;-83
2021/06/14 05:10:45;;;;;;;1.90;1.80;;;;;;;14.03;100.00;96635.91;5092848;28;20283;-83
2021/06/14 05:13:13;;;;;;;2.10;1.90;;;;;;;14.06;100.00;96650.59;5092657;28;20196;-82
2021/06/14 05:15:40;;;;;;;1.57;1.47;;;;;;;14.08;100.00;96659.19;5093147;28;20324;-83
2021/06/14 05:18:08;;;;;;;1.80;1.60;;;;;;;14.27;100.00;96654.31;5092964;28;20254;-83
2021/06/14 05:20:37;;;;;;;2.10;1.87;;;;;;;14.33;100.00;96662.53;5092817;28;20228;-83
2021/06/14 05:23:05;;;;;;;1.70;1.60;;;;;;;14.38;100.00;96668.16;5092876;28;20245;-83
2021/06/14 05:25:33;;;;;;;3.00;2.00;;;;;;;14.55;100.00;96680.31;5092537;28;20261;-83
2021/06/14 05:28:02;;;;;;;1.50;1.40;;;;;;;14.53;100.00;96690.25;5092845;28;20193;-83
2021/06/14 05:30:31;;;;;;;1.80;1.70;;;;;;;14.75;100.00;96696.56;5092667;28;20204;-83
2021/06/14 05:32:58;;;;;;;2.10;1.90;;;;;;;14.88;100.00;96710.06;5092704;28;20192;-83
2021/06/14 05:35:26;;;;;;;4.60;1.60;;;;;;;14.96;100.00;96720.63;5092283;28;20708;-84
2021/06/14 05:37:55;;;;;;;1.63;1.53;;;;;;;14.98;100.00;96731.00;5092947;28;20235;-83
2021/06/14 05:40:23;;;;;;;2.27;1.70;;;;;;;15.25;100.00;96737.63;5092414;28;20273;-83
2021/06/14 05:42:50;;;;;;;2.33;1.80;;;;;;;15.33;100.00;96750.81;5092451;28;20254;-83
2021/06/14 05:45:18;;;;;;;4.50;1.80;;;;;;;15.44;100.00;96747.72;5092485;28;20204;-83
2021/06/14 05:47:45;;;;;;;1.80;1.70;;;;;;;15.60;100.00;96754.75;5092440;28;20246;-83
2021/06/14 05:50:14;;;;;;;2.20;2.00;;;;;;;15.63;100.00;96764.16;5092436;28;20192;-83
2021/06/14 05:52:41;;;;;;;4.03;1.70;;;;;;;15.78;100.00;96761.59;5092228;28;20204;-83
2021/06/14 05:55:11;;;;;;;2.30;2.03;;;;;;;16.01;100.00;96757.06;5092327;28;20241;-83
2021/06/14 05:57:38;;;;;;;2.10;1.73;;;;;;;15.93;100.00;96755.31;5092168;28;20196;-82
2021/06/14 06:00:09;;;;;;;2.37;2.17;;;;;;;16.01;100.00;96749.13;5092143;28;20226;-83
2021/06/14 06:02:37;;;;;;;2.63;1.70;;;;;;;16.16;100.00;96749.13;5091231;28;20613;-82
2021/06/14 06:05:06;;;;;;;3.73;2.20;;;;;;;16.22;100.00;96744.94;5090749;28;20851;-83
2021/06/14 06:07:34;;;;;;;1.70;1.60;;;;;;;16.25;100.00;96740.09;5091917;28;20196;-83
2021/06/14 06:10:01;;;;;;;2.23;1.90;;;;;;;16.46;100.00;96742.00;5091847;28;20277;-83
2021/06/14 06:12:30;;;;;;;2.03;1.90;;;;;;;16.53;100.00;96734.94;5092075;28;20242;-83
2021/06/14 06:14:58;;;;;;;2.93;2.00;;;;;;;16.59;100.00;96720.94;5092165;28;20629;-83
2021/06/14 06:17:25;;;;;;;1.87;1.77;;;;;;;16.77;100.00;96725.88;5092071;28;20286;-83
2021/06/14 06:19:53;;;;;;;2.20;2.00;;;;;;;17.14;100.00;96721.38;5092073;28;20631;-83
2021/06/14 06:22:20;;;;;;;5.13;2.10;;;;;;;17.19;100.00;96713.69;5090982;28;20274;-83
2021/06/14 06:24:48;;;;;;;1.83;1.73;;;;;;;17.27;100.00;96688.81;5091872;28;20194;-82
2021/06/14 06:27:15;;;;;;;7.90;2.40;;;;;;;17.44;100.00;96687.53;5092236;28;20574;-83
2021/06/14 06:29:44;;;;;;;3.00;1.90;;;;;;;17.62;100.00;96673.78;5091802;28;20682;-83
2021/06/14 06:32:11;;;;;;;3.37;2.37;;;;;;;17.58;100.00;96659.25;5091937;28;20199;-83
2021/06/14 06:34:39;;;;;;;3.53;2.10;;;;;;;17.68;100.00;96657.06;5091886;28;20200;-82
2021/06/14 06:37:06;;;;;;;2.60;2.40;;;;;;;17.80;100.00;96644.09;5091841;28;20260;-83
2021/06/14 06:39:33;;;;;;;2.60;2.10;;;;;;;17.48;100.00;96645.47;5091713;28;20231;-82
2021/06/14 06:42:01;;;;;;;3.53;2.50;;;;;;;17.59;100.00;96632.50;5091940;28;20260;-82
2021/06/14 06:44:29;;;;;;;5.43;2.50;;;;;;;17.56;100.00;96637.34;5091595;28;20194;-83
2021/06/14 06:47:00;;;;;;;2.20;2.00;;;;;;;17.79;100.00;96623.84;5091542;28;20252;-82
2021/06/14 06:49:28;;;;;;;1.93;1.80;;;;;;;17.89;100.00;96623.50;5091676;28;20739;-83
2021/06/14 06:51:55;;;;;;;3.30;2.17;;;;;;;18.03;100.00;96623.38;5091626;28;20200;-82
2021/06/14 06:54:23;;;;;;;5.50;1.87;;;;;;;17.93;100.00;96598.97;5091541;28;20189;-83
2021/06/14 06:56:51;;;;;;;3.10;2.07;;;;;;;18.23;100.00;96591.53;5091992;28;20584;-83
2021/06/14 06:59:19;;;;;;;3.50;2.20;;;;;;;18.40;100.00;96591.19;5091331;28;20196;-82
2021/06/14 07:01:47;;;;;;;3.10;1.87;;;;;;;18.33;100.00;96585.03;5091683;28;20197;-83
2021/06/14 07:04:16;;;;;;;3.97;2.07;;;;;;;18.54;100.00;96587.56;5091496;28;20207;-83
2021/06/14 07:06:43;;;;;;;2.00;1.77;;;;;;;18.61;100.00;96588.38;5091343;28;20196;-82
2021/06/14 07:09:11;;;;;;;2.07;1.97;;;;;;;18.57;100.00;96595.13;5091453;28;20257;-83
2021/06/14 07:11:38;;;;;;;4.10;1.90;;;;;;;18.47;100.00;96554.78;5091782;28;20538;-82
2021/06/14 07:14:06;;;;;;;2.50;1.93;;;;;;;18.68;100.00;96559.13;5091343;28;20196;-82
2021/06/14 07:16:34;;;;;;;2.00;1.90;;;;;;;18.56;100.00;96564.19;5091237;28;20196;-82
2021/06/14 07:19:02;;;;;;;2.80;2.00;;;;;;;18.38;100.00;96567.44;5091254;28;20199;-83
2021/06/14 07:21:31;;;;;;;2.27;2.07;;;;;;;18.45;100.00;96581.56;5091508;28;20225;-82
2021/06/14 07:23:58;;;;;;;2.50;1.77;;;;;;;18.42;100.00;96546.56;5091222;28;20200;-83
2021/06/14 07:26:27;;;;;;;2.20;2.00;;;;;;;18.26;100.00;96521.97;5091107;28;20193;-82
2021/06/14 07:28:54;;;;;;;2.47;2.27;;;;;;;18.56;100.00;96502.16;5091200;28;20246;-82
2021/06/14 07:31:22;;;;;;;1.87;1.63;;;;;;;18.48;100.00;96477.38;5091347;28;20657;-83
2021/06/14 07:33:49;;;;;;;4.90;2.43;;;;;;;18.70;100.00;96512.66;5093420;28;20722;-83
2021/06/14 07:36:16;;;;;;;2.60;2.40;;;;;;;18.79;100.00;96499.16;5094641;28;20236;-83
2021/06/14 07:38:45;;;;;;;2.57;2.27;;;;;;;18.85;100.00;96511.66;5094732;28;20196;-83
2021/06/14 07:41:13;;;;;;;4.30;2.17;;;;;;;18.86;100.00;96492.78;5094737;28;20278;-83
2021/06/14 07:43:40;;;;;;;2.00;1.90;;;;;;;18.98;100.00;96492.97;5094440;28;20191;-83
2021/06/14 07:46:08;;;;;;;2.83;2.07;;;;;;;19.13;100.00;96492.78;5094749;28;20222;-83
2021/06/14 07:48:36;;;;;;;3.30;2.60;;;;;;;19.37;100.00;96488.66;5094540;28;20196;-83
2021/06/14 07:51:07;;;;;;;7.97;2.47;;;;;;;18.95;100.00;96426.84;5094660;28;20195;-83
2021/06/14 07:53:35;;;;;;;1.70;1.60;;;;;;;19.12;100.00;96430.69;5094426;28;20242;-82
2021/06/14 07:56:06;;;;;;;5.13;2.10;;;;;;;19.17;100.00;96412.22;5094449;28;20211;-83
2021/06/14 07:58:34;;;;;;;4.23;2.33;;;;;;;19.06;100.00;96426.19;5094679;28;20269;-83
2021/06/14 08:01:03;;;;;;;3.00;2.00;;;;;;;18.90;100.00;96430.09;5094433;28;20220;-83
2021/06/14 08:03:30;;;;;;;2.37;2.17;;;;;;;18.47;100.00;96385.25;5093994;28;20192;-83
2021/06/14 08:05:57;;;;;;;2.57;2.37;;;;;;;18.52;100.00;96424.56;5094484;28;20339;-83
2021/06/14 08:08:25;;;;;;;3.27;2.07;;;;;;;18.66;100.00;96431.53;5094252;28;20236;-83
2021/06/14 08:10:53;;;;;;;2.47;2.20;;;;;;;18.99;100.00;96425.41;5094548;28;20201;-83
2021/06/14 08:13:22;;;;;;;4.00;2.70;;;;;;;19.12;100.00;96413.88;5094150;28;20201;-82
2021/06/14 08:15:50;;;;;;;3.17;2.27;;;;;;;18.78;100.00;96405.13;5094229;28;20200;-83
2021/06/14 08:18:30;;;;;;;3.17;2.20;;;;;;;18.52;100.00;96403.28;5094129;28;20261;-83
2021/06/14 08:21:09;;;;;;;2.23;2.13;;;;;;;18.90;100.00;96398.13;5093892;28;20208;-83
2021/06/14 08:26:22;;;;;;;3.47;1.80;;;;;;;19.74;100.00;96408.97;5094005;28;20180;-83
2021/06/14 08:28:51;;;;;;;2.10;2.00;;;;;;;18.82;100.00;96376.25;5093789;28;20733;-83
2021/06/14 08:31:19;;;;;;;2.10;2.00;;;;;;;18.66;100.00;96394.25;5093906;28;20195;-83
2021/06/14 08:33:46;;;;;;;1.83;1.70;;;;;;;18.82;100.00;96365.59;5093598;28;20203;-83
2021/06/14 08:36:14;;;;;;;2.10;1.93;;;;;;;19.10;100.00;96357.34;5094145;28;20575;-83
2021/06/14 08:38:41;;;;;;;2.67;2.20;;;;;;;19.50;100.00;96336.69;5093648;28;20287;-83
2021/06/14 08:41:09;;;;;;;2.70;1.93;;;;;;;19.89;100.00;96330.31;5093828;28;20227;-83
2021/06/14 08:43:37;;;;;;;2.90;2.10;;;;;;;19.63;100.00;96245.16;5093603;28;20600;-83
2021/06/14 08:46:06;;;;;;;1.90;1.80;;;;;;;19.58;100.00;96247.63;5092813;28;20291;-83
2021/06/14 08:48:34;;;;;;;2.57;1.93;;;;;;;19.39;100.00;96222.72;5093405;28;20200;-83
2021/06/14 08:51:02;;;;;;;2.40;1.60;;;;;;;19.03;100.00;96168.25;5093459;28;20246;-83
2021/06/14 08:53:29;;;;;;;7.43;2.00;;;;;;;19.11;100.00;96186.63;5093285;28;20204;-83
2021/06/14 08:55:58;;;;;;;2.70;1.90;;;;;;;18.84;100.00;96156.66;5093236;28;20200;-83
2021/06/14 08:58:26;;;;;;;1.83;1.57;;;;;;;18.89;100.00;96158.69;5093288;28;20231;-83
2021/06/14 09:00:54;;;;;;;4.60;2.03;;;;;;;18.80;100.00;96218.53;5093547;28;20604;-83
2021/06/14 09:03:25;;;;;;;4.17;1.83;;;;;;;18.55;100.00;96171.31;5093485;28;20262;-83
2021/06/14 09:05:52;;;;;;;2.07;1.50;;;;;;;18.50;100.00;96145.34;5093090;28;20239;-83
2021/06/14 09:08:24;;;;;;;1.60;1.50;;;;;;;18.52;100.00;96179.72;5093092;28;20329;-83
2021/06/14 09:10:52;;;;;;;3.53;1.90;;;;;;;18.50;100.00;96203.06;5093162;28;20180;-83
2021/06/14 09:13:22;;;;;;;1.90;1.80;;;;;;;18.66;100.00;96271.78;5092993;28;20196;-82
2021/06/14 09:15:53;;;;;;;4.03;1.50;;;;;;;19.22;100.00;96305.84;5092869;28;20181;-83
2021/06/14 09:18:25;;;;;;;2.00;1.63;;;;;;;20.14;100.00;96295.66;5093113;28;20184;-83
2021/06/14 09:21:03;;;;;;;3.00;2.20;;;;;;;20.69;100.00;96148.09;5093321;28;20754;-84
2021/06/14 09:23:44;;;;;;;2.73;1.60;;;;;;;20.08;100.00;95932.88;5092642;28;20192;-83
2021/06/14 09:26:25;;;;;;;2.00;1.80;;;;;;;19.97;100.00;95921.09;5092983;28;20653;-83
2021/06/14 09:28:57;;;;;;;3.60;1.90;;;;;;;20.28;100.00;95940.59;5092598;28;20239;-83
2021/06/14 09:31:26;;;;;;;2.20;1.90;;;;;;;19.96;100.00;95850.13;5093139;28;20274;-83
2021/06/14 09:33:54;;;;;;;2.10;1.67;;;;;;;20.16;100.00;95877.34;5092320;28;20307;-84
2021/06/14 09:36:23;;;;;;;2.67;1.80;;;;;;;20.01;100.00;95865.44;5092708;28;20280;-83
2021/06/14 09:38:50;;;;;;;2.67;2.17;;;;;;;19.73;100.00;95861.53;5092405;28;20192;-83
2021/06/14 09:41:21;;;;;;;1.90;1.80;;;;;;;19.86;100.00;95864.03;5092502;28;20652;-83
2021/06/14 09:43:52;;;;;;;1.83;1.60;;;;;;;19.48;100.00;95816.31;5092326;28;20229;-83
2021/06/14 09:46:28;;;;;;;3.40;1.80;;;;;;;19.36;100.00;95807.44;5092684;28;20585;-83
2021/06/14 09:48:57;;;;;;;5.00;2.17;;;;;;;19.27;100.00;95926.84;5092427;28;20249;-84
2021/06/14 09:51:27;;;;;;;2.20;1.73;;;;;;;19.18;100.00;95982.25;5092452;28;20284;-83
2021/06/14 09:53:56;;;;;;;6.13;2.20;;;;;;;19.14;100.00;95953.63;5092526;28;20644;-83
2021/06/14 09:56:25;;;;;;;1.70;1.60;;;;;;;19.22;100.00;95991.47;5092303;28;20196;-83
2021/06/14 09:58:54;;;;;;;3.20;1.80;;;;;;;19.44;100.00;95959.88;5092244;28;20296;-84
2021/06/14 10:01:26;;;;;;;4.07;1.63;;;;;;;19.53;100.00;95956.91;5092302;28;20223;-83
2021/06/14 10:03:54;;;;;;;2.17;1.97;;;;;;;19.54;100.00;95903.38;5092049;28;20203;-83
2021/06/14 10:06:31;;;;;;;2.30;2.10;;;;;;;19.45;100.00;95921.50;5092524;28;20196;-83
2021/06/14 10:08:59;;;;;;;2.03;1.83;;;;;;;19.37;100.00;95921.00;5091817;28;20710;-83
2021/06/14 10:11:34;;;;;;;3.10;1.97;;;;;;;19.58;100.00;95907.22;5092155;28;20196;-83
2021/06/14 10:14:11;;;;;;;4.23;1.70;;;;;;;19.55;100.00;95891.69;5091967;28;20188;-83
2021/06/14 10:16:38;;;;;;;1.70;1.60;;;;;;;20.02;100.00;95993.28;5091871;28;20188;-84
2021/06/14 10:19:07;;;;;;;7.10;3.77;;;;;;;20.17;100.00;95860.28;5091938;28;20325;-83
2021/06/14 10:21:38;;;;;;;3.10;2.27;;;;;;;20.78;100.00;95804.03;5091900;28;20227;-83
2021/06/14 10:24:09;;;;;;;2.57;2.00;;;;;;;20.61;100.00;95794.09;5091723;28;20184;-84
2021/06/14 10:26:38;;;;;;;6.57;1.77;;;;;;;19.98;100.00;95769.88;5092541;28;20180;-83
2021/06/14 10:29:07;;;;;;;2.50;1.50;;;;;;;19.57;100.00;95772.31;5092127;28;20207;-84
2021/06/14 10:31:36;;;;;;;2.20;1.63;;;;;;;20.10;100.00;95771.53;5091976;28;20684;-83
2021/06/14 10:34:04;;;;;;;2.03;1.87;;;;;;;20.23;100.00;95761.66;5091603;28;20192;-83
2021/06/14 10:36:32;;;;;;;2.87;2.00;;;;;;;20.29;100.00;95747.41;5092156;28;20612;-84
2021/06/14 10:39:03;;;;;;;2.43;2.00;;;;;;;19.99;100.00;95745.66;5091730;28;20230;-83
2021/06/14 10:41:31;;;;;;;2.40;1.47;;;;;;;19.86;100.00;95818.69;5092400;28;20292;-83
2021/06/14 10:43:58;;;;;;;3.10;1.90;;;;;;;19.86;100.00;95879.22;5091481;28;20235;-83
2021/06/14 10:46:27;;;;;;;1.60;1.50;;;;;;;20.42;100.00;95924.16;5091838;28;20657;-83
2021/06/14 10:48:56;;;;;;;2.00;1.70;;;;;;;20.96;100.00;95870.72;5091586;28;20196;-83
2021/06/14 10:51:26;;;;;;;3.20;1.63;;;;;;;21.54;100.00;95823.53;5091483;28;20196;-83
2021/06/14 10:54:05;;;;;;;2.40;1.80;;;;;;;21.85;100.00;95779.44;5091678;28;20207;-84
2021/06/14 10:56:34;;;;;;;1.70;1.43;;;;;;;21.78;100.00;95730.63;5091803;28;20194;-84
2021/06/14 10:59:03;;;;;;;2.53;1.77;;;;;;;21.12;100.00;95740.91;5091524;28;20271;-83
2021/06/14 11:01:33;;;;;;;1.93;1.80;;;;;;;20.73;100.00;95748.69;5091345;28;20230;-83
2021/06/14 11:04:01;;;;;;;1.57;1.47;;;;;;;20.40;100.00;95743.91;5091424;28;20192;-83
2021/06/14 11:06:30;;;;;;;2.23;1.70;;;;;;;20.15;100.00;95768.16;5091502;28;20262;-83
2021/06/14 11:09:08;;;;;;;7.63;2.00;;;;;;;20.03;100.00;95773.50;5093780;28;20716;-83
2021/06/14 11:11:51;;;;;;;3.80;1.87;;;;;;;19.75;100.00;95798.13;5095331;28;20237;-84
2021/06/14 11:14:30;;;;;;;1.60;1.50;;;;;;;20.09;100.00;95811.75;5095123;28;20180;-84
2021/06/14 11:17:01;;;;;;;1.70;1.60;;;;;;;20.23;100.00;95791.00;5095559;28;20208;-83
2021/06/14 11:19:36;;;;;;;2.97;1.60;;;;;;;20.07;100.00;95749.84;5095030;28;20195;-83
2021/06/14 11:22:04;;;;;;;1.47;1.37;;;;;;;20.33;100.00;95745.88;5095287;28;20206;-84
2021/06/14 11:24:37;;;;;;;1.43;1.30;;;;;;;20.45;100.00;95724.56;5095467;28;20614;-84
2021/06/14 11:27:08;;;;;;;1.40;1.30;;;;;;;20.24;100.00;95709.94;5095148;28;20623;-84
2021/06/14 11:29:43;;;;;;;5.40;1.87;;;;;;;20.16;100.00;95719.13;5094750;28;20180;-84
2021/06/14 11:32:17;;;;;;;3.23;1.87;;;;;;;20.67;100.00;95710.38;5095389;28;20196;-83
2021/06/14 11:34:46;;;;;;;4.63;1.50;;;;;;;20.72;100.00;95696.31;5094813;28;20199;-84
2021/06/14 11:37:13;;;;;;;3.07;1.30;;;;;;;20.63;100.00;95684.38;5094999;28;20196;-84
2021/06/14 11:39:43;;;;;;;2.37;1.53;;;;;;;20.88;100.00;95676.06;5095189;28;20234;-84